Time;durP1;ratioP1;P1;durP2;ratioP2;P2;SDS_P1;SDS_P2;PMS_P1;PMS_P2;Temp;Humidity;BMP_temperature;BMP_pressure;BME280_temperature;BME280_humidity;BME280_pressure;Samples;Min_cycle;Max_cycle;Signal;HPM_P1;HPM_P2
2022/01/06 00:00:34;;;;;;;;;;;;;;;;;;5073320;28;19925;-81
2022/01/06 00:03:01;;;;;;;;;;;;;;;;;;5072994;28;20028;-81
2022/01/06 00:05:28;;;;;;;;;;;;;;;;;;5073104;28;20033;-80
2022/01/06 00:07:55;;;;;;;;;;;;;;;;;;5072952;28;19998;-81
2022/01/06 00:10:23;;;;;;;;;;;;;;;;;;5074381;28;19925;-80
2022/01/06 00:13:05;;;;;;;;;;;;;;;;;;5077171;28;20426;-81
2022/01/06 00:15:37;;;;;;;;;;;;;;;;;;5076796;28;19979;-82
2022/01/06 00:18:25;;;;;;;;;;;;;;;;;;5076790;28;19964;-82
2022/01/06 00:23:39;;;;;;;;;;;;;;;;;;5076575;28;19936;-81
2022/01/06 00:26:06;;;;;;;;;;;;;;;;;;5076584;28;19943;-81
2022/01/06 00:28:33;;;;;;;;;;;;;;;;;;5076389;28;20046;-81
2022/01/06 00:31:00;;;;;;;;;;;;;;;;;;5076360;28;20027;-80
2022/01/06 00:33:27;;;;;;;;;;;;;;;;;;5076272;28;20003;-82
2022/01/06 00:35:54;;;;;;;;;;;;;;;;;;5076579;28;19987;-81
2022/01/06 00:38:22;;;;;;;;;;;;;;;;;;5076318;28;20029;-81
2022/01/06 00:40:49;;;;;;;;;;;;;;;;;;5076308;28;19954;-81
2022/01/06 00:43:16;;;;;;;;;;;;;;;;;;5076194;28;20037;-81
2022/01/06 00:45:43;;;;;;;;;;;;;;;;;;5076056;28;20340;-81
2022/01/06 00:48:10;;;;;;;;;;;;;;;;;;5075740;28;20058;-81
2022/01/06 00:50:37;;;;;;;;;;;;;;;;;;5076277;28;19997;-82
2022/01/06 00:53:04;;;;;;;;;;;;;;;;;;5076210;28;19950;-81
2022/01/06 00:55:32;;;;;;;;;;;;;;;;;;5076002;28;20473;-81
2022/01/06 00:57:59;;;;;;;;;;;;;;;;;;5075990;28;20324;-81
2022/01/06 01:00:28;;;;;;;;;;;;;;;;;;5075986;28;20049;-81
2022/01/06 01:02:55;;;;;;;;;;;;;;;;;;5076042;28;19943;-82
2022/01/06 01:05:22;;;;;;;;;;;;;;;;;;5075716;28;20048;-81
2022/01/06 01:07:49;;;;;;;;;;;;;;;;;;5075824;28;20067;-81
2022/01/06 01:10:16;;;;;;;;;;;;;;;;;;5075644;28;20007;-81
2022/01/06 01:12:47;;;;;;;;;;;;;;;;;;5075799;28;20038;-81
2022/01/06 01:15:19;;;;;;;;;;;;;;;;;;5075797;28;19952;-81
2022/01/06 01:17:47;;;;;;;;;;;;;;;;;;5075667;28;19943;-81
2022/01/06 01:20:14;;;;;;;;;;;;;;;;;;5075521;28;19943;-82
2022/01/06 01:22:41;;;;;;;;;;;;;;;;;;5075227;28;19943;-82
2022/01/06 01:25:08;;;;;;;;;;;;;;;;;;5075388;28;20025;-81
2022/01/06 01:27:39;;;;;;;;;;;;;;;;;;5075083;28;20454;-82
2022/01/06 01:30:10;;;;;;;;;;;;;;;;;;5075513;28;19930;-81
2022/01/06 01:32:38;;;;;;;;;;;;;;;;;;5075285;28;20456;-81
2022/01/06 01:35:06;;;;;;;;;;;;;;;;;;5075389;28;19924;-81
2022/01/06 01:37:33;;;;;;;;;;;;;;;;;;5075090;28;19944;-82
2022/01/06 01:40:00;;;;;;;;;;;;;;;;;;5075159;28;19942;-82
2022/01/06 01:42:27;;;;;;;;;;;;;;;;;;5075338;28;19925;-82
2022/01/06 01:44:54;;;;;;;;;;;;;;;;;;5074947;28;20447;-82
2022/01/06 01:47:29;;;;;;;;;;;;;;;;;;5075008;28;19932;-81
2022/01/06 01:49:59;;;;;;;;;;;;;;;;;;5074839;28;20299;-82
2022/01/06 01:52:26;;;;;;;;;;;;;;;;;;5074868;28;19925;-81
2022/01/06 01:54:53;;;;;;;;;;;;;;;;;;5074808;28;20459;-81
2022/01/06 01:57:20;;;;;;;;;;;;;;;;;;5074908;28;19960;-82
2022/01/06 01:59:47;;;;;;;;;;;;;;;;;;5074822;28;19924;-82
2022/01/06 02:02:14;;;;;;;;;;;;;;;;;;5074716;28;19982;-81
2022/01/06 02:04:41;;;;;;;;;;;;;;;;;;5074723;28;20011;-82
2022/01/06 02:07:08;;;;;;;;;;;;;;;;;;5074539;28;19996;-81
2022/01/06 02:09:35;;;;;;;;;;;;;;;;;;5074369;28;20019;-81
2022/01/06 02:12:02;;;;;;;;;;;;;;;;;;5074370;28;20352;-82
2022/01/06 02:14:29;;;;;;;;;;;;;;;;;;5074391;28;19947;-82
2022/01/06 02:16:56;;;;;;;;;;;;;;;;;;5074397;28;19948;-82
2022/01/06 02:19:23;;;;;;;;;;;;;;;;;;5074315;28;20323;-82
2022/01/06 02:21:50;;;;;;;;;;;;;;;;;;5074148;28;19997;-81
2022/01/06 02:24:17;;;;;;;;;;;;;;;;;;5074118;28;20372;-81
2022/01/06 02:26:44;;;;;;;;;;;;;;;;;;5074316;28;20003;-82
2022/01/06 02:29:11;;;;;;;;;;;;;;;;;;5073976;28;20057;-82
2022/01/06 02:31:38;;;;;;;;;;;;;;;;;;5074146;28;20057;-82
2022/01/06 02:34:05;;;;;;;;;;;;;;;;;;5073353;28;19924;-82
2022/01/06 02:36:32;;;;;;;;;;;;;;;;;;5073918;28;19994;-82
2022/01/06 02:38:59;;;;;;;;;;;;;;;;;;5074162;28;20335;-82
2022/01/06 02:41:26;;;;;;;;;;;;;;;;;;5074121;28;20007;-82
2022/01/06 02:43:55;;;;;;;;;;;;;;;;;;5073835;28;20011;-82
2022/01/06 02:46:22;;;;;;;;;;;;;;;;;;5073735;28;19999;-82
2022/01/06 02:48:49;;;;;;;;;;;;;;;;;;5073541;28;19970;-81
2022/01/06 02:51:16;;;;;;;;;;;;;;;;;;5073733;28;19986;-82
2022/01/06 02:53:43;;;;;;;;;;;;;;;;;;5074036;28;19964;-81
2022/01/06 02:56:10;;;;;;;;;;;;;;;;;;5073767;28;20454;-82
2022/01/06 02:58:37;;;;;;;;;;;;;;;;;;5073838;28;19968;-82
2022/01/06 03:01:04;;;;;;;;;;;;;;;;;;5073548;28;20041;-82
2022/01/06 03:03:31;;;;;;;;;;;;;;;;;;5073630;28;20015;-81
2022/01/06 03:05:58;;;;;;;;;;;;;;;;;;5073977;28;20039;-82
2022/01/06 03:08:26;;;;;;;;;;;;;;;;;;5073610;28;20298;-81
2022/01/06 03:10:54;;;;;;;;;;;;;;;;;;5073447;28;20330;-81
2022/01/06 03:13:21;;;;;;;;;;;;;;;;;;5073509;28;20397;-81
2022/01/06 03:15:48;;;;;;;;;;;;;;;;;;5073487;28;19968;-82
2022/01/06 03:18:15;;;;;;;;;;;;;;;;;;5073716;28;20027;-82
2022/01/06 03:20:42;;;;;;;;;;;;;;;;;;5073620;28;19982;-81
2022/01/06 03:23:09;;;;;;;;;;;;;;;;;;5073646;28;19988;-82
2022/01/06 03:25:36;;;;;;;;;;;;;;;;;;5073336;28;19993;-82
2022/01/06 03:28:03;;;;;;;;;;;;;;;;;;5073305;28;20396;-83
2022/01/06 03:30:30;;;;;;;;;;;;;;;;;;5073369;28;20138;-82
2022/01/06 03:32:57;;;;;;;;;;;;;;;;;;5073297;28;20008;-81
2022/01/06 03:35:24;;;;;;;;;;;;;;;;;;5073231;28;20002;-82
2022/01/06 03:37:51;;;;;;;;;;;;;;;;;;5073602;28;20019;-82
2022/01/06 03:40:18;;;;;;;;;;;;;;;;;;5073361;28;20062;-82
2022/01/06 03:42:45;;;;;;;;;;;;;;;;;;5073385;28;20041;-81
2022/01/06 03:45:12;;;;;;;;;;;;;;;;;;5075959;28;20462;-81
2022/01/06 03:47:39;;;;;;;;;;;;;;;;;;5077629;28;20026;-82
2022/01/06 03:50:06;;;;;;;;;;;;;;;;;;5076912;28;20055;-82
2022/01/06 03:52:33;;;;;;;;;;;;;;;;;;5077322;28;20433;-82
2022/01/06 03:55:00;;;;;;;;;;;;;;;;;;5077094;28;20058;-82
2022/01/06 03:57:27;;;;;;;;;;;;;;;;;;5077021;28;20030;-82
2022/01/06 03:59:54;;;;;;;;;;;;;;;;;;5076898;28;20031;-82
2022/01/06 04:02:21;;;;;;;;;;;;;;;;;;5076897;28;20481;-82
2022/01/06 04:04:48;;;;;;;;;;;;;;;;;;5077036;28;20031;-82
2022/01/06 04:07:14;;;;;;;;;;;;;;;;;;5076889;28;20015;-82
2022/01/06 04:09:41;;;;;;;;;;;;;;;;;;5076720;28;20489;-81
2022/01/06 04:12:10;;;;;;;;;;;;;;;;;;5076726;28;19950;-82
2022/01/06 04:14:38;;;;;;;;;;;;;;;;;;5076957;28;19943;-82
2022/01/06 04:17:07;;;;;;;;;;;;;;;;;;5076711;28;19942;-82
2022/01/06 04:19:35;;;;;;;;;;;;;;;;;;5076614;28;19931;-82
2022/01/06 04:22:02;;;;;;;;;;;;;;;;;;5076894;28;19925;-82
2022/01/06 04:24:31;;;;;;;;;;;;;;;;;;5075868;28;20214;-82
2022/01/06 04:26:58;;;;;;;;;;;;;;;;;;5076399;28;19988;-82
2022/01/06 04:29:25;;;;;;;;;;;;;;;;;;5076485;28;20056;-82
2022/01/06 04:31:52;;;;;;;;;;;;;;;;;;5076692;28;20012;-82
2022/01/06 04:34:19;;;;;;;;;;;;;;;;;;5076272;28;19925;-82
2022/01/06 04:36:50;;;;;;;;;;;;;;;;;;5076413;28;19959;-82
2022/01/06 04:39:17;;;;;;;;;;;;;;;;;;5076218;28;20004;-81
2022/01/06 04:41:44;;;;;;;;;;;;;;;;;;5076487;28;20305;-82
2022/01/06 04:44:11;;;;;;;;;;;;;;;;;;5076289;28;20029;-82
2022/01/06 04:46:38;;;;;;;;;;;;;;;;;;5076260;28;20021;-82
2022/01/06 04:49:05;;;;;;;;;;;;;;;;;;5075845;28;20061;-82
2022/01/06 04:51:32;;;;;;;;;;;;;;;;;;5075946;28;20041;-82
2022/01/06 04:53:59;;;;;;;;;;;;;;;;;;5076213;28;20015;-82
2022/01/06 04:56:26;;;;;;;;;;;;;;;;;;5075243;28;20037;-82
2022/01/06 04:58:53;;;;;;;;;;;;;;;;;;5075628;28;20345;-82
2022/01/06 05:01:20;;;;;;;;;;;;;;;;;;5075720;28;20023;-82
2022/01/06 05:03:47;;;;;;;;;;;;;;;;;;5075555;28;20037;-82
2022/01/06 05:06:14;;;;;;;;;;;;;;;;;;5075534;28;20346;-82
2022/01/06 05:08:41;;;;;;;;;;;;;;;;;;5075655;28;20050;-82
2022/01/06 05:11:08;;;;;;;;;;;;;;;;;;5075433;28;20034;-82
2022/01/06 05:13:35;;;;;;;;;;;;;;;;;;5075547;28;20014;-81
2022/01/06 05:16:03;;;;;;;;;;;;;;;;;;5075374;28;20007;-81
2022/01/06 05:18:30;;;;;;;;;;;;;;;;;;5075285;28;19947;-81
2022/01/06 05:20:57;;;;;;;;;;;;;;;;;;5075214;28;20478;-82
2022/01/06 05:23:24;;;;;;;;;;;;;;;;;;5075412;28;20031;-82
2022/01/06 05:25:51;;;;;;;;;;;;;;;;;;5075087;28;20396;-82
2022/01/06 05:28:18;;;;;;;;;;;;;;;;;;5075180;28;19924;-82
2022/01/06 05:30:46;;;;;;;;;;;;;;;;;;5075142;28;20011;-82
2022/01/06 05:33:14;;;;;;;;;;;;;;;;;;5075286;28;19929;-82
2022/01/06 05:35:41;;;;;;;;;;;;;;;;;;5075165;28;19924;-82
2022/01/06 05:38:08;;;;;;;;;;;;;;;;;;5075009;28;20368;-82
2022/01/06 05:40:35;;;;;;;;;;;;;;;;;;5075394;28;19999;-82
2022/01/06 05:43:02;;;;;;;;;;;;;;;;;;5075288;28;20019;-82
2022/01/06 05:45:29;;;;;;;;;;;;;;;;;;5074703;28;19944;-82
2022/01/06 05:47:56;;;;;;;;;;;;;;;;;;5074514;28;19924;-81
2022/01/06 05:50:23;;;;;;;;;;;;;;;;;;5074690;28;20027;-82
2022/01/06 05:52:54;;;;;;;;;;;;;;;;;;5074548;28;20447;-81
2022/01/06 05:55:21;;;;;;;;;;;;;;;;;;5074719;28;19983;-81
2022/01/06 05:57:48;;;;;;;;;;;;;;;;;;5074595;28;20452;-81
2022/01/06 06:00:15;;;;;;;;;;;;;;;;;;5074674;28;20007;-81
2022/01/06 06:02:42;;;;;;;;;;;;;;;;;;5074398;28;20007;-81
2022/01/06 06:05:09;;;;;;;;;;;;;;;;;;5074921;28;20359;-82
2022/01/06 06:07:36;;;;;;;;;;;;;;;;;;5073511;28;19931;-81
2022/01/06 06:10:03;;;;;;;;;;;;;;;;;;5074438;28;20003;-81
2022/01/06 06:12:30;;;;;;;;;;;;;;;;;;5074205;28;19994;-81
2022/01/06 06:14:57;;;;;;;;;;;;;;;;;;5074141;28;19945;-81
2022/01/06 06:17:24;;;;;;;;;;;;;;;;;;5074092;28;20041;-81
2022/01/06 06:19:51;;;;;;;;;;;;;;;;;;5074058;28;20351;-82
2022/01/06 06:22:18;;;;;;;;;;;;;;;;;;5074249;28;19960;-81
2022/01/06 06:24:45;;;;;;;;;;;;;;;;;;5074025;28;20037;-81
2022/01/06 06:27:12;;;;;;;;;;;;;;;;;;5074034;28;19951;-81
2022/01/06 06:29:39;;;;;;;;;;;;;;;;;;5073875;28;20015;-81
2022/01/06 06:32:06;;;;;;;;;;;;;;;;;;5074007;28;20046;-81
2022/01/06 06:34:33;;;;;;;;;;;;;;;;;;5073834;28;20476;-81
2022/01/06 06:37:00;;;;;;;;;;;;;;;;;;5074004;28;20035;-81
2022/01/06 06:39:27;;;;;;;;;;;;;;;;;;5073942;28;19943;-81
2022/01/06 06:41:54;;;;;;;;;;;;;;;;;;5073701;28;20458;-81
2022/01/06 06:44:21;;;;;;;;;;;;;;;;;;5073793;28;20011;-81
2022/01/06 06:46:48;;;;;;;;;;;;;;;;;;5073599;28;19997;-81
2022/01/06 06:49:15;;;;;;;;;;;;;;;;;;5073454;28;20270;-81
2022/01/06 06:51:42;;;;;;;;;;;;;;;;;;5073825;28;20003;-81
2022/01/06 06:54:09;;;;;;;;;;;;;;;;;;5073736;28;20008;-81
2022/01/06 06:56:36;;;;;;;;;;;;;;;;;;5073540;28;20345;-81
2022/01/06 06:59:03;;;;;;;;;;;;;;;;;;5073933;28;19971;-81
2022/01/06 07:01:30;;;;;;;;;;;;;;;;;;5073568;28;20430;-81
2022/01/06 07:03:57;;;;;;;;;;;;;;;;;;5073780;28;20011;-81
2022/01/06 07:06:24;;;;;;;;;;;;;;;;;;5073503;28;20003;-81
2022/01/06 07:08:51;;;;;;;;;;;;;;;;;;5073319;28;20027;-81
2022/01/06 07:11:18;;;;;;;;;;;;;;;;;;5073386;28;20007;-82
2022/01/06 07:13:45;;;;;;;;;;;;;;;;;;5073552;28;20025;-81
2022/01/06 07:16:12;;;;;;;;;;;;;;;;;;5073410;28;20053;-82
2022/01/06 07:18:39;;;;;;;;;;;;;;;;;;5073077;28;20011;-82
2022/01/06 07:21:06;;;;;;;;;;;;;;;;;;5073412;28;20037;-81
2022/01/06 07:23:33;;;;;;;;;;;;;;;;;;5073390;28;19979;-81
2022/01/06 07:26:00;;;;;;;;;;;;;;;;;;5073346;28;20036;-81
2022/01/06 07:28:27;;;;;;;;;;;;;;;;;;5073490;28;19954;-81
2022/01/06 07:30:54;;;;;;;;;;;;;;;;;;5073241;28;20008;-81
2022/01/06 07:33:21;;;;;;;;;;;;;;;;;;5073115;28;20042;-81
2022/01/06 07:35:48;;;;;;;;;;;;;;;;;;5073261;28;20051;-81
2022/01/06 07:38:15;;;;;;;;;;;;;;;;;;5073275;28;20039;-81
2022/01/06 07:40:42;;;;;;;;;;;;;;;;;;5073606;28;20380;-82
2022/01/06 07:43:09;;;;;;;;;;;;;;;;;;5073151;28;20418;-82
2022/01/06 07:45:36;;;;;;;;;;;;;;;;;;5073176;28;20380;-82
2022/01/06 07:48:14;;;;;;;;;;;;;;;;;;5073462;28;20029;-81
2022/01/06 07:50:41;;;;;;;;;;;;;;;;;;5073294;28;19959;-81
2022/01/06 07:53:08;;;;;;;;;;;;;;;;;;5073188;28;20011;-80
2022/01/06 07:55:35;;;;;;;;;;;;;;;;;;5073056;28;20442;-81
2022/01/06 07:58:02;;;;;;;;;;;;;;;;;;5073373;28;20035;-81
2022/01/06 08:00:29;;;;;;;;;;;;;;;;;;5073402;28;20037;-80
2022/01/06 08:02:56;;;;;;;;;;;;;;;;;;5073404;28;19932;-81
2022/01/06 08:05:25;;;;;;;;;;;;;;;;;;5072939;28;20045;-81
2022/01/06 08:07:52;;;;;;;;;;;;;;;;;;5073367;28;19950;-81
2022/01/06 08:10:19;;;;;;;;;;;;;;;;;;5073066;28;20015;-80
2022/01/06 08:12:46;;;;;;;;;;;;;;;;;;5072923;28;20015;-80
2022/01/06 08:15:14;;;;;;;;;;;;;;;;;;5073059;28;20038;-81
2022/01/06 08:17:41;;;;;;;;;;;;;;;;;;5072948;28;19924;-80
2022/01/06 08:20:08;;;;;;;;;;;;;;;;;;5072126;28;20023;-80
2022/01/06 08:22:36;;;;;;;;;;;;;;;;;;5072695;28;20376;-81
2022/01/06 08:25:03;;;;;;;;;;;;;;;;;;5072816;28;19935;-80
2022/01/06 08:27:30;;;;;;;;;;;;;;;;;;5072872;28;20003;-81
2022/01/06 08:29:57;;;;;;;;;;;;;;;;;;5072791;28;20001;-80
2022/01/06 08:32:24;;;;;;;;;;;;;;;;;;5075442;28;20461;-81
2022/01/06 08:34:51;;;;;;;;;;;;;;;;;;5076243;28;20011;-81
2022/01/06 08:37:18;;;;;;;;;;;;;;;;;;5076478;28;20034;-80
2022/01/06 08:39:45;;;;;;;;;;;;;;;;;;5076198;28;20437;-81
2022/01/06 08:42:12;;;;;;;;;;;;;;;;;;5076125;28;19979;-81
2022/01/06 08:44:41;;;;;;;;;;;;;;;;;;5076604;28;19966;-82
2022/01/06 08:47:08;;;;;;;;;;;;;;;;;;5076118;28;19989;-81
2022/01/06 08:49:35;;;;;;;;;;;;;;;;;;5075751;28;20350;-81
2022/01/06 08:52:02;;;;;;;;;;;;;;;;;;5076208;28;20007;-81
2022/01/06 08:54:29;;;;;;;;;;;;;;;;;;5075937;28;20443;-81
2022/01/06 08:56:56;;;;;;;;;;;;;;;;;;5076001;28;19930;-81
2022/01/06 08:59:23;;;;;;;;;;;;;;;;;;5075882;28;19964;-81
2022/01/06 09:01:50;;;;;;;;;;;;;;;;;;5075829;28;19943;-81
2022/01/06 09:04:20;;;;;;;;;;;;;;;;;;5076009;28;20018;-81
2022/01/06 09:06:47;;;;;;;;;;;;;;;;;;5075842;28;19924;-81
2022/01/06 09:09:14;;;;;;;;;;;;;;;;;;5075946;28;20048;-81
2022/01/06 09:11:41;;;;;;;;;;;;;;;;;;5075533;28;20446;-81
2022/01/06 09:14:08;;;;;;;;;;;;;;;;;;5075602;28;20387;-82
2022/01/06 09:16:35;;;;;;;;;;;;;;;;;;5075709;28;20005;-81
2022/01/06 09:19:02;;;;;;;;;;;;;;;;;;5075416;28;20455;-82
2022/01/06 09:21:29;;;;;;;;;;;;;;;;;;5075477;28;20010;-81
2022/01/06 09:23:57;;;;;;;;;;;;;;;;;;5075454;28;19963;-81
2022/01/06 09:26:24;;;;;;;;;;;;;;;;;;5075288;28;19949;-81
2022/01/06 09:28:51;;;;;;;;;;;;;;;;;;5075327;28;20037;-81
2022/01/06 09:31:18;;;;;;;;;;;;;;;;;;5075362;28;20057;-81
2022/01/06 09:33:45;;;;;;;;;;;;;;;;;;5075358;28;20367;-82
2022/01/06 09:36:12;;;;;;;;;;;;;;;;;;5075183;28;20030;-81
2022/01/06 09:38:39;;;;;;;;;;;;;;;;;;5075060;28;19947;-82
2022/01/06 09:41:06;;;;;;;;;;;;;;;;;;5074919;28;19984;-81
2022/01/06 09:43:34;;;;;;;;;;;;;;;;;;5074623;28;19925;-82
2022/01/06 09:46:01;;;;;;;;;;;;;;;;;;5075014;28;19963;-82
2022/01/06 09:48:27;;;;;;;;;;;;;;;;;;5074423;28;20353;-82
2022/01/06 09:50:54;;;;;;;;;;;;;;;;;;5074686;28;20055;-81
2022/01/06 09:53:21;;;;;;;;;;;;;;;;;;5074741;28;19989;-81
2022/01/06 09:55:48;;;;;;;;;;;;;;;;;;5074582;28;19925;-81
2022/01/06 09:58:15;;;;;;;;;;;;;;;;;;5074774;28;20352;-82
2022/01/06 10:00:46;;;;;;;;;;;;;;;;;;5074796;28;20003;-82
2022/01/06 10:03:13;;;;;;;;;;;;;;;;;;5074771;28;19925;-82
2022/01/06 10:05:39;;;;;;;;;;;;;;;;;;5074646;28;20027;-82
2022/01/06 10:08:07;;;;;;;;;;;;;;;;;;5074568;28;19986;-82
2022/01/06 10:10:35;;;;;;;;;;;;;;;;;;5074416;28;19973;-82
2022/01/06 10:13:06;;;;;;;;;;;;;;;;;;5074447;28;19950;-82
2022/01/06 10:15:33;;;;;;;;;;;;;;;;;;5074725;28;19931;-82
2022/01/06 10:18:00;;;;;;;;;;;;;;;;;;5074351;28;19974;-82
2022/01/06 10:20:27;;;;;;;;;;;;;;;;;;5074373;28;19944;-82
2022/01/06 10:22:54;;;;;;;;;;;;;;;;;;5074171;28;20319;-82
2022/01/06 10:25:21;;;;;;;;;;;;;;;;;;5074374;28;19954;-81
2022/01/06 10:27:49;;;;;;;;;;;;;;;;;;5074328;28;19947;-82
2022/01/06 10:30:16;;;;;;;;;;;;;;;;;;5074054;28;19967;-81
2022/01/06 10:32:43;;;;;;;;;;;;;;;;;;5074043;28;20417;-82
2022/01/06 10:35:10;;;;;;;;;;;;;;;;;;5074127;28;20116;-81
2022/01/06 10:37:39;;;;;;;;;;;;;;;;;;5073945;28;20001;-82
2022/01/06 10:40:06;;;;;;;;;;;;;;;;;;5074057;28;20414;-82
2022/01/06 10:42:33;;;;;;;;;;;;;;;;;;5074017;28;19960;-83
2022/01/06 10:45:04;;;;;;;;;;;;;;;;;;5073994;28;20008;-82
2022/01/06 10:47:31;;;;;;;;;;;;;;;;;;5073906;28;19945;-82
2022/01/06 10:49:58;;;;;;;;;;;;;;;;;;5073499;28;20485;-82
2022/01/06 10:52:25;;;;;;;;;;;;;;;;;;5074175;28;20040;-82
2022/01/06 10:54:52;;;;;;;;;;;;;;;;;;5073281;28;19997;-83
2022/01/06 10:57:19;;;;;;;;;;;;;;;;;;5073462;28;20404;-82
2022/01/06 10:59:46;;;;;;;;;;;;;;;;;;5073841;28;19970;-83
2022/01/06 11:02:13;;;;;;;;;;;;;;;;;;5073669;28;20024;-82
2022/01/06 11:04:40;;;;;;;;;;;;;;;;;;5073627;28;20385;-82
2022/01/06 11:07:07;;;;;;;;;;;;;;;;;;5073793;28;20034;-83
2022/01/06 11:09:34;;;;;;;;;;;;;;;;;;5073682;28;20039;-82
2022/01/06 11:14:46;;;;;;;;;;;;;;;;;;5073574;28;19959;-82
2022/01/06 11:17:13;;;;;;;;;;;;;;;;;;5073509;28;19955;-82
2022/01/06 11:19:40;;;;;;;;;;;;;;;;;;5073726;28;19947;-82
2022/01/06 11:22:09;;;;;;;;;;;;;;;;;;5073583;28;20435;-82
2022/01/06 11:24:38;;;;;;;;;;;;;;;;;;5073266;28;20397;-82
2022/01/06 11:27:06;;;;;;;;;;;;;;;;;;5073386;28;19957;-83
2022/01/06 11:29:34;;;;;;;;;;;;;;;;;;5073849;28;19949;-82
2022/01/06 11:32:01;;;;;;;;;;;;;;;;;;5073509;28;19975;-82
2022/01/06 11:34:28;;;;;;;;;;;;;;;;;;5073350;28;19948;-82
2022/01/06 11:36:55;;;;;;;;;;;;;;;;;;5073233;28;19952;-82
2022/01/06 11:39:22;;;;;;;;;;;;;;;;;;5073142;28;19951;-82
2022/01/06 11:41:51;;;;;;;;;;;;;;;;;;5073021;28;19986;-82
2022/01/06 11:44:18;;;;;;;;;;;;;;;;;;5073035;28;19958;-83
2022/01/06 11:46:45;;;;;;;;;;;;;;;;;;5073118;28;20448;-83
2022/01/06 11:49:12;;;;;;;;;;;;;;;;;;5073008;28;20013;-83
2022/01/06 11:51:39;;;;;;;;;;;;;;;;;;5072905;28;20481;-82
2022/01/06 11:54:06;;;;;;;;;;;;;;;;;;5072968;28;19973;-82
2022/01/06 11:56:33;;;;;;;;;;;;;;;;;;5072983;28;20016;-82
2022/01/06 11:59:00;;;;;;;;;;;;;;;;;;5072926;28;20384;-82
2022/01/06 12:01:27;;;;;;;;;;;;;;;;;;5072990;28;19950;-82
2022/01/06 12:03:54;;;;;;;;;;;;;;;;;;5073051;28;19974;-83
2022/01/06 12:06:21;;;;;;;;;;;;;;;;;;5076126;28;19955;-82
2022/01/06 12:08:48;;;;;;;;;;;;;;;;;;5076741;28;19951;-83
2022/01/06 12:11:15;;;;;;;;;;;;;;;;;;5076617;28;20511;-82
2022/01/06 12:13:42;;;;;;;;;;;;;;;;;;5076806;28;19974;-82
2022/01/06 12:16:09;;;;;;;;;;;;;;;;;;5076958;28;20043;-82
2022/01/06 12:18:36;;;;;;;;;;;;;;;;;;5076703;28;19998;-82
2022/01/06 12:21:03;;;;;;;;;;;;;;;;;;5076477;28;20440;-82
2022/01/06 12:23:30;;;;;;;;;;;;;;;;;;5076581;28;19956;-83
2022/01/06 12:25:57;;;;;;;;;;;;;;;;;;5076511;28;19952;-83
2022/01/06 12:28:24;;;;;;;;;;;;;;;;;;5076780;28;20395;-82
2022/01/06 12:30:51;;;;;;;;;;;;;;;;;;5076539;28;20493;-83
2022/01/06 12:33:21;;;;;;;;;;;;;;;;;;5076534;28;19990;-83
2022/01/06 12:35:49;;;;;;;;;;;;;;;;;;5076454;28;19954;-82
2022/01/06 12:38:18;;;;;;;;;;;;;;;;;;5076257;28;20015;-82
2022/01/06 12:40:45;;;;;;;;;;;;;;;;;;5076743;28;20046;-83
2022/01/06 12:43:12;;;;;;;;;;;;;;;;;;5076432;28;20007;-82
2022/01/06 12:45:38;;;;;;;;;;;;;;;;;;5076310;28;19957;-82
2022/01/06 12:48:05;;;;;;;;;;;;;;;;;;5076037;28;20004;-83
2022/01/06 12:50:32;;;;;;;;;;;;;;;;;;5076056;28;20060;-82
2022/01/06 12:52:59;;;;;;;;;;;;;;;;;;5075811;28;19986;-82
2022/01/06 12:55:27;;;;;;;;;;;;;;;;;;5075856;28;19954;-82
2022/01/06 12:57:54;;;;;;;;;;;;;;;;;;5075786;28;20437;-82
2022/01/06 13:00:21;;;;;;;;;;;;;;;;;;5076204;28;20382;-82
2022/01/06 13:02:48;;;;;;;;;;;;;;;;;;5075965;28;20038;-81
2022/01/06 13:05:15;;;;;;;;;;;;;;;;;;5075729;28;19959;-82
2022/01/06 13:07:42;;;;;;;;;;;;;;;;;;5076071;28;20029;-82
2022/01/06 13:10:09;;;;;;;;;;;;;;;;;;5075746;28;20048;-82
2022/01/06 13:12:36;;;;;;;;;;;;;;;;;;5075723;28;20062;-83
2022/01/06 13:15:03;;;;;;;;;;;;;;;;;;5075417;28;20397;-82
2022/01/06 13:17:30;;;;;;;;;;;;;;;;;;5075244;28;20374;-82
2022/01/06 13:19:58;;;;;;;;;;;;;;;;;;5075477;28;20048;-82
2022/01/06 13:22:27;;;;;;;;;;;;;;;;;;5075896;28;19950;-83
2022/01/06 13:24:54;;;;;;;;;;;;;;;;;;5075489;28;19955;-83
2022/01/06 13:27:21;;;;;;;;;;;;;;;;;;5075342;28;19999;-82
2022/01/06 13:29:48;;;;;;;;;;;;;;;;;;5075393;28;19985;-83
2022/01/06 13:32:15;;;;;;;;;;;;;;;;;;5075513;28;20066;-82
2022/01/06 13:34:42;;;;;;;;;;;;;;;;;;5075158;28;19980;-83
2022/01/06 13:37:09;;;;;;;;;;;;;;;;;;5075166;28;20025;-82
2022/01/06 13:39:36;;;;;;;;;;;;;;;;;;5076138;28;20059;-84
2022/01/06 13:42:03;;;;;;;;;;;;;;;;;;5075030;28;19949;-82
2022/01/06 13:44:30;;;;;;;;;;;;;;;;;;5074955;28;19994;-82
2022/01/06 13:47:06;;;;;;;;;;;;;;;;;;5074784;28;19953;-83
2022/01/06 13:52:17;;;;;;;;;;;;;;;;;;5074826;28;20444;-82
2022/01/06 13:54:44;;;;;;;;;;;;;;;;;;5074914;28;20033;-82
2022/01/06 13:57:11;;;;;;;;;;;;;;;;;;5074681;28;20002;-82
2022/01/06 13:59:38;;;;;;;;;;;;;;;;;;5074603;28;20000;-83
2022/01/06 14:02:05;;;;;;;;;;;;;;;;;;5074625;28;20400;-82
2022/01/06 14:04:32;;;;;;;;;;;;;;;;;;5074777;28;20005;-82
2022/01/06 14:06:59;;;;;;;;;;;;;;;;;;5074704;28;19951;-83
2022/01/06 14:09:26;;;;;;;;;;;;;;;;;;5074600;28;20047;-82
2022/01/06 14:11:53;;;;;;;;;;;;;;;;;;5074404;28;20047;-83
2022/01/06 14:14:20;;;;;;;;;;;;;;;;;;5074662;28;19954;-83
2022/01/06 14:16:47;;;;;;;;;;;;;;;;;;5074383;28;20439;-83
2022/01/06 14:19:14;;;;;;;;;;;;;;;;;;5074331;28;19999;-83
2022/01/06 14:21:41;;;;;;;;;;;;;;;;;;5074607;28;20041;-83
2022/01/06 14:24:08;;;;;;;;;;;;;;;;;;5074447;28;19965;-83
2022/01/06 14:26:35;;;;;;;;;;;;;;;;;;5074203;28;20045;-84
2022/01/06 14:29:02;;;;;;;;;;;;;;;;;;5073314;28;20363;-83
2022/01/06 14:31:29;;;;;;;;;;;;;;;;;;5074206;28;20055;-84
2022/01/06 14:33:56;;;;;;;;;;;;;;;;;;5074190;28;20049;-84
2022/01/06 14:36:23;;;;;;;;;;;;;;;;;;5074111;28;20047;-83
2022/01/06 14:38:50;;;;;;;;;;;;;;;;;;5073945;28;20025;-84
2022/01/06 14:41:18;;;;;;;;;;;;;;;;;;5074029;28;19994;-83
2022/01/06 14:43:45;;;;;;;;;;;;;;;;;;5073981;28;19956;-84
2022/01/06 14:46:13;;;;;;;;;;;;;;;;;;5074063;28;20004;-83
2022/01/06 14:48:40;;;;;;;;;;;;;;;;;;5073670;28;19972;-84
2022/01/06 14:51:07;;;;;;;;;;;;;;;;;;5073720;28;20393;-83
2022/01/06 14:53:34;;;;;;;;;;;;;;;;;;5073724;28;20037;-84
2022/01/06 14:56:02;;;;;;;;;;;;;;;;;;5073693;28;20040;-83
2022/01/06 14:58:29;;;;;;;;;;;;;;;;;;5073859;28;20004;-83
2022/01/06 15:00:56;;;;;;;;;;;;;;;;;;5073863;28;20054;-83
2022/01/06 15:03:23;;;;;;;;;;;;;;;;;;5073807;28;20384;-84
2022/01/06 15:05:50;;;;;;;;;;;;;;;;;;5073669;28;19963;-83
2022/01/06 15:08:18;;;;;;;;;;;;;;;;;;5073655;28;19993;-83
2022/01/06 15:10:45;;;;;;;;;;;;;;;;;;5073457;28;19955;-83
2022/01/06 15:13:12;;;;;;;;;;;;;;;;;;5073613;28;20052;-83
2022/01/06 15:15:39;;;;;;;;;;;;;;;;;;5073497;28;20491;-83
2022/01/06 15:18:08;;;;;;;;;;;;;;;;;;5073513;28;20043;-85
2022/01/06 15:20:35;;;;;;;;;;;;;;;;;;5073613;28;20481;-84
2022/01/06 15:23:02;;;;;;;;;;;;;;;;;;5073317;28;20046;-84
2022/01/06 15:25:30;;;;;;;;;;;;;;;;;;5073629;28;19984;-84
2022/01/06 15:27:58;;;;;;;;;;;;;;;;;;5073396;28;19952;-83
2022/01/06 15:30:25;;;;;;;;;;;;;;;;;;5073748;28;20010;-84
2022/01/06 15:32:52;;;;;;;;;;;;;;;;;;5073216;28;20516;-84
2022/01/06 15:35:19;;;;;;;;;;;;;;;;;;5073354;28;20001;-83
2022/01/06 15:37:46;;;;;;;;;;;;;;;;;;5073489;28;20031;-84
2022/01/06 15:40:13;;;;;;;;;;;;;;;;;;5074778;28;20033;-84
2022/01/06 15:42:41;;;;;;;;;;;;;;;;;;5077549;28;19954;-83
2022/01/06 15:45:08;;;;;;;;;;;;;;;;;;5077402;28;20001;-82
2022/01/06 15:47:35;;;;;;;;;;;;;;;;;;5077331;28;20054;-82
2022/01/06 15:50:02;;;;;;;;;;;;;;;;;;5077046;28;20062;-82
2022/01/06 15:52:29;;;;;;;;;;;;;;;;;;5077460;28;20001;-82
2022/01/06 15:54:56;;;;;;;;;;;;;;;;;;5077123;28;20039;-82
2022/01/06 15:57:23;;;;;;;;;;;;;;;;;;5077287;28;20038;-82
2022/01/06 15:59:56;;;;;;;;;;;;;;;;;;5077298;28;20045;-82
2022/01/06 16:05:15;;;;;;;;;;;;;;;;;;5077210;28;19937;-82
2022/01/06 16:07:42;;;;;;;;;;;;;;;;;;5077010;28;19960;-81
2022/01/06 16:10:09;;;;;;;;;;;;;;;;;;5077023;28;20388;-82
2022/01/06 16:12:36;;;;;;;;;;;;;;;;;;5076722;28;20062;-82
2022/01/06 16:15:03;;;;;;;;;;;;;;;;;;5076550;28;20401;-82
2022/01/06 16:17:30;;;;;;;;;;;;;;;;;;5076845;28;20001;-82
2022/01/06 16:19:57;;;;;;;;;;;;;;;;;;5076583;28;20395;-82
2022/01/06 16:22:24;;;;;;;;;;;;;;;;;;5076740;28;20051;-82
2022/01/06 16:24:51;;;;;;;;;;;;;;;;;;5076572;28;20384;-82
2022/01/06 16:27:18;;;;;;;;;;;;;;;;;;5076174;28;20042;-82
2022/01/06 16:29:45;;;;;;;;;;;;;;;;;;5076470;28;20493;-82
2022/01/06 16:32:12;;;;;;;;;;;;;;;;;;5076497;28;20054;-81
2022/01/06 16:34:39;;;;;;;;;;;;;;;;;;5076437;28;20058;-82
2022/01/06 16:37:06;;;;;;;;;;;;;;;;;;5076482;28;20043;-82
2022/01/06 16:39:33;;;;;;;;;;;;;;;;;;5076097;28;20011;-82
2022/01/06 16:42:00;;;;;;;;;;;;;;;;;;5076029;28;20036;-82
2022/01/06 16:44:27;;;;;;;;;;;;;;;;;;5076212;28;20011;-82
2022/01/06 16:46:54;;;;;;;;;;;;;;;;;;5076314;28;20032;-82
2022/01/06 16:49:21;;;;;;;;;;;;;;;;;;5075947;28;20076;-82
2022/01/06 16:51:48;;;;;;;;;;;;;;;;;;5075066;28;20000;-82
2022/01/06 16:54:16;;;;;;;;;;;;;;;;;;5075963;28;20039;-82
2022/01/06 16:56:43;;;;;;;;;;;;;;;;;;5075776;28;19925;-81